CALIFORNIA METAR OBSERVATIONS
*** Not a substitute for official aviation weather ***

METAR Decoder

California METARS via your cellphone - use these links:
http://www.ocflyingclub.com/metars.cfm
http://www.ocflyingclub.com/metar.cfm

KSNA 161736Z 21006KT 10SM SCT017 26/19 A3001 RMK AO2 T02560194
 
Date: 17Z 16 AUG 18

K9L2 161658Z AUTO 00000KT 9SM CLR 30/08 A3006 RMK AO2 SLP151 T03020078
KAAT 161655Z AUTO 00000KT 10SM CLR 24/02 A3018 RMK AO2 SLP173 T02390022
KACV 161653Z AUTO 32003KT 9SM OVC011 14/13 A3007 RMK AO2 SLP188 T01440128
KAJO 161656Z AUTO 00000KT 10SM CLR 26/19 A3003 RMK AO2 SLP171 T02610189 $
KAPC 161740Z 23006KT 10SM FEW012 18/13 A3005 RMK AO2 T01830133
KAUN 161735Z AUTO 18004KT 10SM CLR 30/07 A3005 RMK AO1
KAVX 161651Z AUTO 12008KT 10SM FEW006 22/19 A3006 RMK AO2 SLP159 T02170189
     $
KBAB 161658Z AUTO 00000KT 9SM CLR 23/12 A2999 RMK AO2 SLP158 T02330120 $
KBAN 161652Z AUTO 00000KT 10SM CLR 21/03 A3031 RMK AO2 SLP159 T02110028 $
KBFL 161654Z 00000KT 8SM CLR 28/13 A3000 RMK AO2 SLP151 T02830133
KBIH 161656Z AUTO 00000KT 10SM CLR 28/06 A3016 RMK AO2 SLP157 T02830056
KBLH 161652Z AUTO VRB03KT 10SM CLR 33/22 A2999 RMK AO2 SLP148 T03280217
KBLU 161652Z AUTO 18005KT 10SM CLR 23/04 A3028 RMK AO2 SLP153 T02330039
KBUR 161653Z VRB04KT 10SM CLR 24/19 A3003 RMK AO2 SLP155 T02390194
KBYS 161655Z AUTO 17007KT 9SM CLR 31/15 A3009 RMK AO2 SLP141 WND DATA ESTMD
     T03080150
KCCR 161653Z 20010KT 9SM CLR 22/12 A3003 RMK AO2 SLP155 T02170122
KCEC 161656Z AUTO 20006KT 4SM BR OVC003 14/14 A3007 RMK AO2 SLP182
     T01390139
KCIC 161647Z 17003KT 10SM SKC 23/09 A3001
KCMA 161655Z VRB03KT 9SM CLR 25/18 A3002 RMK AO2 SLP171 T02500178
KCNO 161653Z 00000KT 10SM CLR 27/18 A3003 RMK AO2 SLP164 T02720183
KCQT 161647Z AUTO VRB03KT 8SM CLR 27/19 A3000 RMK AO2 SLP156 T02670189
KCRQ 161653Z VRB04KT 9SM OVC016 22/19 A3002 RMK AO2 SLP163 T02220189
KCVH 161735Z AUTO 00000KT 9SM CLR 21/14 A3005 RMK A01
KCZZ 161652Z AUTO 07013G16KT 31/18 A3004 RMK AO1 SLP136 T03060183
KDAG 161650Z AUTO 04003KT 10SM CLR 32/15 A3004 RMK AO2 SLP142 T03220150
KDVO 161735Z AUTO 00000KT 10SM CLR 20/14 A3004 RMK AO2
KE16 161715Z AUTO 33008KT 270V030 10SM CLR 20/13 A3007 RMK AO2
KEDU 161735Z AUTO 16003KT 8SM CLR 23/14 A3001 RMK AO1
KEDW 161658Z 25003KT 50SM FEW060 30/07 A3005 RMK AO2A SLP149 T03000072
KEED 161656Z AUTO 00000KT 10SM CLR 33/20 A3002 RMK AO2 SLP131 T03280200 $
KEMT 161645Z 00000KT 10SM CLR 25/18 A3003
KF70 161735Z AUTO 19004KT 10SM CLR 28/18 A3004 RMK AO1
KFAT 161653Z 30003KT 6SM HZ CLR 26/14 A3001 RMK AO2 SLP157 T02560139
KFCH 161735Z AUTO 00000KT 8SM CLR 25/14 A3001 RMK A01
KFOT 161735Z AUTO 00000KT 10SM OVC008 14/13 A3009 RMK AO1
KFUL 161653Z 00000KT 10SM FEW021 26/18 A3000 RMK AO2 SLP159 T02610183
KGOO 161740Z AUTO 00000KT 10SM CLR 28/04 A3014 RMK AO1
METAR KGXA 161655Z AUTO 08006KT 10SM CLR 32/ A3009 RMK AO2 SLP108 WND DATA
     ESTMD T0316 PWINO $
KHAF 161740Z AUTO 35007KT 7SM OVC018 17/13 A3009 RMK AO2
KHHR 161653Z 13004KT 9SM CLR 25/19 A3002 RMK AO2 SLP163 T02500189
KHJO 161653Z AUTO 31005KT 6SM HZ CLR 26/14 A3001 RMK AO2 SLP162 T02610139
KHWD 161654Z 27009KT 9SM FEW017 19/13 A3006 RMK AO2 SLP189 T01940128
KIPL 161653Z AUTO 18010KT 10SM FEW031 33/24 A2993 RMK AO2 SLP137 T03330239
KIZA 161735Z AUTO 24004KT 10SM CLR 23/14 A3003 RMK AO2
KL18 161735Z AUTO 21006KT 10SM CLR 26/19 A3004 RMK AO2
KL35 161735Z AUTO 06008KT 10SM CLR 22/11 A3036 RMK AO2
KLAX 161653Z VRB03KT 10SM FEW019 26/19 A3002 RMK AO2 SLP162 T02560189
KLGB 161717Z VRB04KT 7SM SCT018 25/19 A3001 RMK AO2 T02500194
KLHM 161735Z AUTO 21004KT 10SM CLR 24/12 A3000 RMK AO1
KLPC 161656Z AUTO VRB05KT 10SM 18/14 A3005 RMK AO2 SLP178 T01830144
KLVK 161653Z 21004KT 7SM CLR 19/13 A3004 RMK AO2 SLP171 T01890128
KMAE 161653Z AUTO 29006KT 7SM CLR 24/14 A3001 RMK AO2 SLP159 T02440139
KMCC 161730Z AUTO 16004KT 8SM CLR 22/13 A3003 RMK AO2
KMCE 161653Z AUTO 31007KT 6SM HZ CLR 24/13 A3000 RMK AO2 SLP156 T02390133
KMHR 161645Z 18004KT 10SM SKC 21/13 A3000
KMHS 161713Z AUTO 00000KT 3SM HZ CLR 26/06 A3013 RMK AO2 T02610056
KMHV 161720Z AUTO 11004KT 10SM CLR 31/05 A3009 RMK A01
KMMH 161735Z AUTO 13005KT 10SM CLR 24/03 A3038 RMK AO2 T02420031
KMOD 161653Z 33008KT 9SM CLR 23/13 A3000 RMK AO2 SLP159 T02330128 $
KMRY 161654Z 32006KT 9SM CLR 18/13 A3006 RMK AO2 SLP191 T01780133
KMYF 161653Z 30008KT 9SM OVC017 24/18 A3003 RMK AO2 SLP165 T02390183
KMYV 161653Z AUTO 11005KT 10SM CLR 22/13 A3001 RMK AO2 SLP165 T02220133
KNFG 161655Z VRB05KT 10SM BKN019 25/19 A3002 RMK AO2 SLP163 T02500194
KNID 161656Z 21004KT 10SM FEW100 32/07 A3005 RMK AO2 SLP150 T03220067 $
KNJK 161656Z 14010KT 10SM SCT080 33/23 A2996 RMK AO2 SLP159 T03330233
SPECI KNKX 161721Z 00000KT 10SM SCT020 26/18 A3003 RMK AO2 T02610178
KNLC 161656Z 32007KT 10SM FEW055 26/12 A3001 RMK AO2 SLP161 FU FEW055 RH/44
     T02560122
KNRS 161656Z 25008KT 9SM BKN020 24/18 A3003 RMK AO2 SLP168 T02440183
KNSI 161657Z 09003KT 7SM FEW005 FEW009 22/18 A3004 RMK AO2 SLP165 T02170183
     $
KNTD 161658Z 19004KT 10SM FEW015 SCT020 24/19 A3002 RMK AO2 SLP168
     T02440189 $
KNUC 161741Z 21006KT 10SM OVC014 22/18 A3005 RMK AO2 T02170183 $
SPECI KNUQ 161714Z VRB05KT 8SM SCT020 20/14 A3007 RMK AO2 T02000139
KNXF 161656Z AUTO 22007KT 10SM OVC018 24/19 A3003 RMK AO2 SLP252 T02390189
     PNO
KNXP 161656Z 12004KT 10SM FEW060 32/17 A3012 RMK AO2 SLP159 T03220172 PNO
     $
KNZY 161652Z 20004KT 10SM OVC016 23/18 A3002 RMK SLP166 T02280183
KO22 161735Z AUTO 20004KT 10SM CLR 32/07 A3008 RMK A01
KO69 161735Z AUTO VRB04KT 8SM FEW008 17/14 A3005 RMK A01
KOAK 161653Z 26012KT 7SM FEW013 18/13 A3006 RMK AO2 SLP179 T01830128
KOKB 161652Z AUTO 21006KT 8SM OVC018 24/18 A3001 RMK AO2 SLP162 T02440183
KONT 161653Z 24006KT 9SM FEW100 26/18 A3003 RMK AO2 SLP154 T02560183
KOVE 161653Z AUTO 00000KT 10SM CLR 23/13 A3002 RMK AO2 SLP168 T02280133 $
KOXR 161651Z 23006KT 10SM OVC019 23/19 A3002 RMK AO2 SLP165 T02330189
KPMD 161653Z 00000KT 10SM CLR 31/09 A3008 RMK AO2 SLP151 T03110094
KPOC 161647Z 24007KT 10SM CLR 24/18 A3006
KPRB 161653Z AUTO 00000KT 10SM CLR 22/13 A3004 RMK AO2 SLP165 T02220133 $
KPSP 161653Z 08008KT 10SM CLR 34/22 A2999 RMK AO2 SLP152 T03440217
KPTV 161656Z AUTO 23007KT 9SM CLR 27/16 A3001 RMK AO2 SLP167 T02720156
KPVF 161735Z AUTO 21003KT 10SM CLR 29/04 A3012 RMK AO1
KRAL 161653Z 24005KT 10SM CLR 25/18 A3003 RMK AO2 SLP152 T02500178
KRBL 161654Z AUTO 14004KT 10SM CLR 24/13 A3001 RMK AO2 SLP158 T02440128
KRDD 161708Z 21003KT 2 1/2SM HZ FU CLR 27/09 A2999 RMK AO2 T02670089
KRHV 161647Z 33007KT 10SM FEW018 20/14 A3004 RMK 31L CLOSED
KRIV 161658Z AUTO 30005KT 10SM CLR 27/18 A3005 RMK AO2 SLP162 T02670180
KRNM 161653Z 31008KT 10SM CLR 26/18 A3005 RMK AO2 SLP160 T02560178
KSAC 161653Z 17004KT 10SM CLR 21/14 A3001 RMK AO2 SLP160 T02110139
KSAN 161651Z 27004KT 10SM OVC017 24/18 A3004 RMK AO2 SLP172 T02390183
KSBA 161658Z 15005KT 10SM SCT012 24/18 A3002 RMK AO2 T02390183
KSBD 161650Z 00000KT 5SM HZ FEW050 27/17 A3004
KSBP 161656Z 00000KT 10SM CLR 20/14 A3004 RMK AO2 SLP171 T02000144 $
KSCK 161655Z COR 32005KT 10SM CLR 23/13 A3001 RMK AO2 SLP161 T02280133
KSDB 161653Z AUTO 21009KT 10SM CLR 27/07 A3022 RMK AO2 SLP174 T02670072 $
KSDM 161653Z 32005KT 9SM SCT016 24/18 A3003 RMK AO2 SLP163 T02440183
KSEE 161647Z 00000KT 10SM FEW020 25/18 A3003
KSFO 161656Z 27014KT 10SM FEW009 SCT020 18/12 A3007 RMK AO2 SLP181
     T01830117
KSIY 161653Z AUTO 03005KT 2SM HZ OVC021 24/09 A3008 RMK AO2 SLP170
     T02440089
KSJC 161653Z COR 36005KT 7SM FEW006 SCT018 SCT030 19/13 A3006 RMK AO2
     SLP178 FU SCT030 T01940133
KSLI 161715Z 00000KT 10SM SCT018 25/20 A3001 RMK AO2A
KSMF 161653Z 00000KT 10SM CLR 19/13 A3000 RMK AO2 SLP157 T01940133
KSMO 161651Z 00000KT 9SM FEW018 27/19 A3002 RMK AO2 SLP163 T02720189
KSMX 161651Z 00000KT 7SM SCT011 19/15 A3005 RMK AO2 SLP177 T01940150
KSNA 161736Z 21006KT 10SM SCT017 26/19 A3001 RMK AO2 T02560194
KSNS 161653Z VRB03KT 5SM HZ CLR 19/14 A3005 RMK AO2 SLP184 T01940144
KSQL 161647Z 36003KT 8SM SCT020 19/13 A3006
KSTS 161715Z 21003KT 7SM SCT009 17/13 A3003 RMK AO2 T01720133
KSVE 161735Z AUTO 00000KT 10SM CLR 28/03 A3017 RMK AO2
KSUU 161658Z AUTO 23013G21KT 10SM CLR 21/14 A3000 RMK AO2 SLP165 T02080135
     $
KTOA 161650Z 00000KT 9SM SCT016 25/19 A3001
KTRK 161645Z 00000KT 10SM SKC 18/06 A3031
KTRM 161652Z AUTO 16007KT 10SM CLR 36/23 A2994 RMK AO2 SLP140 T03560233
KTSP 161735Z AUTO 25004KT 9SM CLR 28/05 A3018 RMK AO2
KTVL 161711Z AUTO 04006KT 10SM CLR 23/08 A3031 RMK AO2 T02280078 $
KUKI 161656Z AUTO 00000KT 10SM CLR 19/12 A3003 RMK AO2 SLP162 T01940117
KVBG 161721Z VRB04KT 10SM FEW007 SCT010 SCT012 17/14 A3005 RMK AO2A VIS LWR
     S-NW CIG OVR RWYS 009V012
KVCV 161655Z 00000KT 10SM SKC A3011
KVIS 161656Z AUTO VRB04KT 6SM HZ CLR 24/17 A3001 RMK AO2 SLP166 T02440167
KVNY 161651Z 00000KT 6SM HZ CLR 26/18 A3002 RMK AO2 SLP158 T02560183
KWHP 161655Z 00000KT 10SM SKC 24/18 A3007
KWJF 161656Z VRB03KT 10SM CLR 31/09 A3006 RMK AO2 SLP156 T03110089
KWVI 161653Z AUTO 18003KT 10SM CLR 19/14 A3006 RMK AO2 SLP177 T01940144